Ferry Katsuragi — JI3611 — position and weather

sailwx.info

Track history (hours):
 
Tides and Currents Weather Stations Pressure Air Temp Water Temp Dewpoint Dewpoint Depression Visibility Wind Speed Wind Dir Waves Ship Positions

Ferry Katsuragi

Last reported at 2018-Jun-23 15:31 UTC. Time now 2018-Jun-23 15:51 UTC.
Position N 34°13' E 135°09'.

Length 108 m; draft 4 m.

Type: Passenger vessel. MMSI: 431301245.

Date/timePositionNaut miles runAvg speedWind from/ knotsBaromVisibWave heightAir tempDewpointWater temp
2018-Jun-23 15:31N 34°13' E 135°09'0 0.9
2018-Jun-23 15:00N 34°13' E 135°08'713.2
2018-Jun-23 14:31N 34°11' E 135°00'714.5
2018-Jun-23 14:01N 34°08' E 134°52'9 4.0
2018-Jun-23 11:50N 34°06' E 134°42'514.7
2018-Jun-23 11:30N 34°08' E 134°48'714.7
2018-Jun-23 11:00N 34°09' E 134°56'714.9
2018-Jun-23 10:30N 34°12' E 135°05'3 6.5
2018-Jun-23 10:00N 34°13' E 135°09'0 0.1
2018-Jun-23 09:30N 34°13' E 135°09'713.4
2018-Jun-23 09:00N 34°11' E 135°01'916.7
2018-Jun-23 08:29N 34°08' E 134°51'9 4.5
2018-Jun-23 06:27N 34°04' E 134°41'614.1
2018-Jun-23 06:00N 34°07' E 134°48'714.3
2018-Jun-23 05:30N 34°10' E 134°56'713.9
2018-Jun-23 05:00N 34°12' E 135°04'4 8.3
2018-Jun-23 04:30N 34°13' E 135°09'0 0.1
2018-Jun-23 04:00N 34°13' E 135°09'713.9
2018-Jun-23 03:30N 34°11' E 135°00'916.3
2018-Jun-23 02:59N 34°07' E 134°51'12 7.4
2018-Jun-23 01:21N 34°03' E 134°38'814.6
2018-Jun-23 00:49N 34°06' E 134°46'515.5
2018-Jun-23 00:30N 34°08' E 134°51'815.5
2018-Jun-23 00:00N 34°10' E 135°00'714.8
2018-Jun-22 23:30N 34°13' E 135°09'0 0.1
2018-Jun-22 23:00N 34°13' E 135°09'4 8.4
2018-Jun-22 22:30N 34°12' E 135°04'713.4
2018-Jun-22 22:00N 34°09' E 134°56'713.4
2018-Jun-22 21:30N 34°07' E 134°49'11 6.2
2018-Jun-22 19:47N 34°03' E 134°37'412.9
2018-Jun-22 19:27N 34°05' E 134°42'713.5
2018-Jun-22 18:58N 34°07' E 134°49'613.5
2018-Jun-22 18:30N 34°10' E 134°56'713.4
2018-Jun-22 18:01N 34°12' E 135°03'4 8.9
2018-Jun-22 17:30N 34°13' E 135°09'0 0.0
2018-Jun-22 17:00N 34°13' E 135°09'0 0.0
2018-Jun-22 16:30N 34°13' E 135°09'0 0.0
2018-Jun-22 16:00N 34°13' E 135°09'0 0.0
2018-Jun-22 15:30N 34°13' E 135°09'0 0.1
2018-Jun-22 15:01N 34°13' E 135°09'712.9
2018-Jun-22 14:30N 34°12' E 135°01'714.4
2018-Jun-22 14:00N 34°09' E 134°53'12 5.8
2018-Jun-22 12:00N 34°04' E 134°40'714.6
2018-Jun-22 11:30N 34°07' E 134°48'715.0
2018-Jun-22 11:01N 34°10' E 134°56'714.6
2018-Jun-22 10:30N 34°12' E 135°05'3 6.7
2018-Jun-22 10:00N 34°13' E 135°09'1 1.1
2018-Jun-22 09:30N 34°13' E 135°08'815.2
2018-Jun-22 09:01N 34°11' E 134°59'815.6
2018-Jun-22 08:30N 34°08' E 134°51'4 1.9
2018-Jun-22 06:10N 34°06' E 134°46'213.8
2018-Jun-22 06:00N 34°07' E 134°48'714.0
2018-Jun-22 05:30N 34°10' E 134°56'713.7
2018-Jun-22 05:00N 34°12' E 135°04'4 8.5
2018-Jun-22 04:30N 34°13' E 135°09'0 0.1
2018-Jun-22 04:00N 34°13' E 135°09'714.0
2018-Jun-22 03:30N 34°10' E 135°01'816.2
2018-Jun-22 03:01N 34°07' E 134°52'6 2.8
2018-Jun-22 00:54N 34°05' E 134°45'615.7
2018-Jun-22 00:30N 34°07' E 134°52'815.8
2018-Jun-22 00:01N 34°11' E 135°01'714.0
2018-Jun-21 23:30N 34°13' E 135°09'0 0.0
2018-Jun-21 23:00N 34°13' E 135°09'3 5.9
2018-Jun-21 22:30N 34°12' E 135°05'714.2
2018-Jun-21 22:00N 34°09' E 134°57'815.0
2018-Jun-21 21:30N 34°06' E 134°49'11 6.2
2018-Jun-21 19:47N 34°03' E 134°37'413.9
2018-Jun-21 19:29N 34°04' E 134°42'713.8
2018-Jun-21 19:00N 34°07' E 134°49'713.6
2018-Jun-21 18:30N 34°09' E 134°56'713.0
2018-Jun-21 18:00N 34°12' E 135°04'4 8.5
2018-Jun-21 17:30N 34°13' E 135°09'0 0.0
2018-Jun-21 17:00N 34°13' E 135°09'0 0.0
2018-Jun-21 16:30N 34°13' E 135°09'0 0.0
2018-Jun-21 16:00N 34°13' E 135°09'0 0.0
2018-Jun-21 15:30N 34°13' E 135°09'1 1.4
2018-Jun-21 15:00N 34°13' E 135°08'713.6
2018-Jun-21 14:30N 34°11' E 134°60'815.0
2018-Jun-21 14:00N 34°08' E 134°51'13 7.3
2018-Jun-21 12:12N 34°03' E 134°37'714.7
2018-Jun-21 11:44N 34°05' E 134°45'415.1
2018-Jun-21 11:29N 34°07' E 134°49'714.8
2018-Jun-21 11:00N 34°10' E 134°56'714.7
2018-Jun-21 10:30N 34°13' E 135°05'3 6.4
2018-Jun-21 09:59N 34°13' E 135°09'0 0.7
2018-Jun-21 09:30N 34°13' E 135°08'714.5
2018-Jun-21 09:00N 34°11' E 134°60'816.1
2018-Jun-21 08:29N 34°08' E 134°51'6 2.9
2018-Jun-21 06:17N 34°06' E 134°43'414.3
2018-Jun-21 05:59N 34°07' E 134°48'714.6
2018-Jun-21 05:30N 34°10' E 134°56'714.1
2018-Jun-21 05:01N 34°12' E 135°04'4 8.1
2018-Jun-21 04:30N 34°13' E 135°09'0 0.1
2018-Jun-21 04:01N 34°13' E 135°09'713.5
2018-Jun-21 03:30N 34°10' E 135°01'916.7
2018-Jun-21 02:58N 34°07' E 134°51'8 4.1
2018-Jun-21 01:02N 34°04' E 134°42'215.6
2018-Jun-21 00:54N 34°05' E 134°45'615.9
2018-Jun-21 00:30N 34°07' E 134°52'815.7
2018-Jun-21 00:00N 34°10' E 135°00'714.8
2018-Jun-20 23:31N 34°13' E 135°09'0 0.1
2018-Jun-20 23:01N 34°13' E 135°09'3 5.5
2018-Jun-20 22:30N 34°12' E 135°05'714.6
2018-Jun-20 22:00N 34°09' E 134°58'714.6
2018-Jun-20 21:30N 34°05' E 134°50'7 3.5
2018-Jun-20 19:28N 34°04' E 134°41'713.9
2018-Jun-20 19:00N 34°07' E 134°48'713.5
2018-Jun-20 18:30N 34°10' E 134°56'713.3
2018-Jun-20 18:00N 34°12' E 135°04'4 8.6
2018-Jun-20 17:30N 34°13' E 135°09'0 0.0
2018-Jun-20 17:00N 34°13' E 135°09'0 0.0
2018-Jun-20 16:30N 34°13' E 135°09'0 0.0
2018-Jun-20 16:00N 34°13' E 135°09'0 0.0
2018-Jun-20 15:30N 34°13' E 135°09'1 2.0
2018-Jun-20 15:00N 34°13' E 135°07'713.6
2018-Jun-20 14:30N 34°10' E 134°60'714.5
2018-Jun-20 14:00N 34°06' E 134°53'13 7.5
2018-Jun-20 12:13N 34°03' E 134°37'413.9
2018-Jun-20 11:58N 34°04' E 134°41'714.1
2018-Jun-20 11:30N 34°06' E 134°49'714.7
2018-Jun-20 11:00N 34°08' E 134°57'815.7
2018-Jun-20 10:30N 34°12' E 135°05'3 6.6
2018-Jun-20 10:00N 34°13' E 135°09'0 0.6
2018-Jun-20 09:30N 34°13' E 135°08'714.5
2018-Jun-20 09:00N 34°10' E 135°00'815.8
2018-Jun-20 08:30N 34°06' E 134°52'10 5.0
2018-Jun-20 06:29N 34°04' E 134°40'714.5
2018-Jun-20 06:00N 34°04' E 134°48'714.2
2018-Jun-20 05:30N 34°08' E 134°56'714.4
2018-Jun-20 05:00N 34°11' E 135°03'5 9.3
2018-Jun-20 04:30N 34°13' E 135°09'0 0.0
2018-Jun-20 04:00N 34°13' E 135°09'713.8
2018-Jun-20 03:30N 34°10' E 135°01'816.1
2018-Jun-20 03:00N 34°06' E 134°53'11 5.7
2018-Jun-20 01:09N 34°04' E 134°40'416.0
2018-Jun-20 00:55N 34°04' E 134°45'715.9
2018-Jun-20 00:30N 34°06' E 134°52'816.3
2018-Jun-20 00:01N 34°10' E 135°01'714.0
2018-Jun-19 23:30N 34°13' E 135°09'0 0.0
2018-Jun-19 23:00N 34°13' E 135°09'2 4.8
2018-Jun-19 22:30N 34°13' E 135°06'815.6
2018-Jun-19 22:00N 34°09' E 134°57'815.7
2018-Jun-19 21:30N 34°05' E 134°49'7 3.4
2018-Jun-19 19:26N 34°04' E 134°41'613.9
2018-Jun-19 19:00N 34°06' E 134°48'714.0
2018-Jun-19 18:30N 34°09' E 134°55'714.1
2018-Jun-19 18:00N 34°12' E 135°03'5 9.1
2018-Jun-19 17:30N 34°13' E 135°09'0 0.0
2018-Jun-19 17:00N 34°13' E 135°09'0 0.0
2018-Jun-19 16:30N 34°13' E 135°09'0 0.0
2018-Jun-19 16:00N 34°13' E 135°09'0 0.0
2018-Jun-19 15:30N 34°13' E 135°09'0 0.0
2018-Jun-19 15:00N 34°13' E 135°09'612.5
2018-Jun-19 14:30N 34°12' E 135°01'815.2
2018-Jun-19 14:00N 34°09' E 134°53'10 4.7
2018-Jun-19 11:52N 34°05' E 134°42'615.0
2018-Jun-19 11:30N 34°07' E 134°48'815.6
2018-Jun-19 11:00N 34°10' E 134°56'714.9
2018-Jun-19 10:30N 34°12' E 135°05'3 6.6
2018-Jun-19 10:00N 34°13' E 135°09'0 0.0
2018-Jun-19 09:31N 34°13' E 135°09'713.8
2018-Jun-19 09:01N 34°11' E 135°01'917.0
2018-Jun-19 08:30N 34°07' E 134°51'8 3.4
2018-Jun-19 06:18N 34°05' E 134°43'414.4
2018-Jun-19 06:00N 34°06' E 134°47'714.6
2018-Jun-19 05:31N 34°09' E 134°56'714.4
2018-Jun-19 05:00N 34°12' E 135°04'4 8.6
2018-Jun-19 04:30N 34°13' E 135°09'0 0.0
2018-Jun-19 04:00N 34°13' E 135°09'713.3
2018-Jun-19 03:30N 34°11' E 135°01'917.3
2018-Jun-19 02:58N 34°07' E 134°51'9 4.8
2018-Jun-19 01:08N 34°04' E 134°41'215.5
2018-Jun-19 01:00N 34°05' E 134°43'815.9
2018-Jun-19 00:30N 34°08' E 134°52'816.0
2018-Jun-19 00:00N 34°11' E 135°01'713.8
2018-Jun-18 23:30N 34°13' E 135°09'0 0.0
2018-Jun-18 23:00N 34°13' E 135°09'3 5.9
2018-Jun-18 22:30N 34°13' E 135°05'714.8
2018-Jun-18 22:00N 34°09' E 134°57'714.9
2018-Jun-18 21:30N 34°06' E 134°49'7 3.3
2018-Jun-18 19:29N 34°04' E 134°41'713.2
2018-Jun-18 18:59N 34°07' E 134°49'713.8
2018-Jun-18 18:30N 34°09' E 134°56'713.9
2018-Jun-18 18:00N 34°12' E 135°04'4 8.6
2018-Jun-18 17:30N 34°13' E 135°09'0 0.0
2018-Jun-18 17:00N 34°13' E 135°09'0 0.0
2018-Jun-18 16:30N 34°13' E 135°09'0 0.0
2018-Jun-18 16:00N 34°13' E 135°09'0 0.0
2018-Jun-18 15:30N 34°13' E 135°09'1 1.3
2018-Jun-18 15:00N 34°13' E 135°08'713.9
2018-Jun-18 14:30N 34°11' E 134°59'714.2
2018-Jun-18 13:59N 34°08' E 134°51'8 3.8
2018-Jun-18 11:51N 34°05' E 134°43'514.6
2018-Jun-18 11:29N 34°07' E 134°49'715.5
2018-Jun-18 11:00N 34°10' E 134°56'714.6
2018-Jun-18 10:30N 34°12' E 135°05'3 6.3
2018-Jun-18 10:00N 34°13' E 135°09'0 0.0
2018-Jun-18 09:30N 34°13' E 135°09'612.5
2018-Jun-18 09:01N 34°11' E 135°01'917.0
2018-Jun-18 08:30N 34°08' E 134°52'7 2.9
2018-Jun-18 06:12N 34°05' E 134°45'418.3
2018-Jun-18 06:01N 34°05' E 134°49'918.4
2018-Jun-18 05:31N 34°10' E 134°59'816.5
2018-Jun-18 05:01N 34°13' E 135°08'1 1.0
2018-Jun-18 04:30N 34°13' E 135°09'0 0.1
2018-Jun-18 04:01N 34°13' E 135°09'815.9
2018-Jun-18 03:30N 34°10' E 134°59'917.1
2018-Jun-18 02:59N 34°06' E 134°50'6 3.4
2018-Jun-18 01:04N 34°04' E 134°42'215.5
2018-Jun-18 00:54N 34°05' E 134°45'615.9
2018-Jun-18 00:30N 34°08' E 134°52'816.1
2018-Jun-18 00:00N 34°11' E 135°01'612.8
2018-Jun-17 23:30N 34°13' E 135°09'0 0.0
2018-Jun-17 23:00N 34°13' E 135°09'3 5.7
2018-Jun-17 22:31N 34°13' E 135°05'815.1
2018-Jun-17 22:01N 34°09' E 134°57'714.1
2018-Jun-17 21:30N 34°06' E 134°49'11 6.4
2018-Jun-17 19:48N 34°03' E 134°37'413.2
2018-Jun-17 19:29N 34°04' E 134°42'613.1
2018-Jun-17 19:00N 34°07' E 134°49'713.4
2018-Jun-17 18:30N 34°09' E 134°56'713.2
2018-Jun-17 18:00N 34°12' E 135°03'4 8.8
2018-Jun-17 17:30N 34°13' E 135°09'0 0.0
2018-Jun-17 17:00N 34°13' E 135°09'0 0.0
2018-Jun-17 16:30N 34°13' E 135°09'0 0.0
2018-Jun-17 16:00N 34°13' E 135°09'0 0.0
2018-Jun-17 15:30N 34°13' E 135°09'1 1.2
2018-Jun-17 15:00N 34°13' E 135°08'612.9
2018-Jun-17 14:31N 34°11' E 135°00'713.9
2018-Jun-17 14:00N 34°08' E 134°53'11 5.2
2018-Jun-17 11:57N 34°04' E 134°41'613.9
2018-Jun-17 11:30N 34°07' E 134°48'715.0
2018-Jun-17 11:00N 34°09' E 134°56'714.9
2018-Jun-17 10:30N 34°12' E 135°05'3 6.9
2018-Jun-17 10:00N 34°13' E 135°09'0 0.0
2018-Jun-17 09:30N 34°13' E 135°09'714.0
2018-Jun-17 09:00N 34°11' E 135°01'815.8
2018-Jun-17 08:30N 34°07' E 134°52'13 7.1
2018-Jun-17 06:39N 34°03' E 134°37'414.0
2018-Jun-17 06:22N 34°04' E 134°41'514.0
2018-Jun-17 06:00N 34°06' E 134°47'714.4
2018-Jun-17 05:30N 34°09' E 134°55'714.8
2018-Jun-17 05:00N 34°12' E 135°03'5 9.2
2018-Jun-17 04:30N 34°13' E 135°09'0 0.0
2018-Jun-17 04:01N 34°13' E 135°09'713.7
2018-Jun-17 03:30N 34°11' E 135°01'916.2
2018-Jun-17 02:58N 34°08' E 134°51'9 4.9
2018-Jun-17 01:07N 34°04' E 134°41'214.9
2018-Jun-17 01:00N 34°05' E 134°43'815.3
2018-Jun-17 00:30N 34°08' E 134°52'816.2
2018-Jun-17 00:00N 34°11' E 135°00'713.7
2018-Jun-16 23:29N 34°13' E 135°09'0 0.0
2018-Jun-16 23:00N 34°13' E 135°09'3 6.7
2018-Jun-16 22:30N 34°12' E 135°05'816.3
2018-Jun-16 22:01N 34°07' E 134°57'714.4
2018-Jun-16 21:30N 34°06' E 134°49'10 5.9
2018-Jun-16 19:46N 34°03' E 134°37'312.9
2018-Jun-16 19:30N 34°04' E 134°41'713.1
2018-Jun-16 19:00N 34°07' E 134°48'713.9
2018-Jun-16 18:30N 34°10' E 134°56'713.9
2018-Jun-16 18:01N 34°12' E 135°03'4 8.7
2018-Jun-16 17:30N 34°13' E 135°09'0 0.0
2018-Jun-16 17:00N 34°13' E 135°09'0 0.0
2018-Jun-16 16:30N 34°13' E 135°09'0 0.0
2018-Jun-16 16:00N 34°13' E 135°09'0 0.0
2018-Jun-16 15:30N 34°13' E 135°09'1 1.1
2018-Jun-16 15:00N 34°13' E 135°08'714.2
2018-Jun-16 14:30N 34°12' E 134°59'714.5
2018-Jun-16 14:00N 34°08' E 134°52'7 2.9
2018-Jun-16 11:43N 34°06' E 134°44'314.5
2018-Jun-16 11:30N 34°07' E 134°48'714.4
2018-Jun-16 11:00N 34°10' E 134°56'815.3
2018-Jun-16 10:30N 34°12' E 135°05'3 6.4
2018-Jun-16 10:00N 34°13' E 135°09'0 0.1
2018-Jun-16 09:30N 34°13' E 135°09'714.4
2018-Jun-16 09:00N 34°11' E 134°60'916.2
2018-Jun-16 08:28N 34°08' E 134°51'5 2.2
2018-Jun-16 06:11N 34°05' E 134°45'314.1
2018-Jun-16 05:57N 34°07' E 134°49'714.6
2018-Jun-16 05:31N 34°09' E 134°56'714.6
2018-Jun-16 05:00N 34°12' E 135°04'4 7.9
2018-Jun-16 04:30N 34°13' E 135°09'0 0.1
2018-Jun-16 04:00N 34°13' E 135°09'713.7
2018-Jun-16 03:30N 34°10' E 135°01'816.3
2018-Jun-16 03:01N 34°07' E 134°52'13 8.1
2018-Jun-16 01:23N 34°03' E 134°37'513.7
2018-Jun-16 01:00N 34°05' E 134°43'715.1
2018-Jun-16 00:30N 34°08' E 134°51'815.9
2018-Jun-16 00:00N 34°11' E 135°00'714.6
2018-Jun-15 23:30N 34°13' E 135°09'0 0.0
2018-Jun-15 23:01N 34°13' E 135°09'4 8.0
2018-Jun-15 22:31N 34°12' E 135°04'714.2
2018-Jun-15 22:00N 34°09' E 134°56'813.8
2018-Jun-15 21:27N 34°06' E 134°47'9 5.6
2018-Jun-15 19:47N 34°03' E 134°37'412.9
2018-Jun-15 19:26N 34°04' E 134°42'613.4
2018-Jun-15 19:00N 34°07' E 134°48'713.6
2018-Jun-15 18:30N 34°09' E 134°56'713.4
2018-Jun-15 18:00N 34°12' E 135°03'4 8.9
2018-Jun-15 17:30N 34°13' E 135°09'0 0.0
2018-Jun-15 17:00N 34°13' E 135°09'0 0.0
2018-Jun-15 16:31N 34°13' E 135°09'0 0.0
2018-Jun-15 16:00N 34°13' E 135°09'0 0.0
2018-Jun-15 15:31N 34°13' E 135°09'1 1.5
2018-Jun-15 15:00N 34°13' E 135°08'713.5
2018-Jun-15 14:30N 34°12' E 134°60'714.6
2018-Jun-15 14:00N 34°08' E 134°52'13 7.5
2018-Jun-15 12:13N 34°03' E 134°37'513.8
2018-Jun-15 11:50N 34°05' E 134°43'413.9
2018-Jun-15 11:30N 34°07' E 134°48'714.4
2018-Jun-15 11:00N 34°09' E 134°56'714.9
2018-Jun-15 10:31N 34°12' E 135°04'4 7.1
2018-Jun-15 10:00N 34°13' E 135°09'0 0.0
2018-Jun-15 09:31N 34°13' E 135°09'714.0
2018-Jun-15 09:00N 34°11' E 135°00'816.0
2018-Jun-15 08:29N 34°08' E 134°51'9 4.1
2018-Jun-15 06:24N 34°04' E 134°42'613.8
2018-Jun-15 05:59N 34°06' E 134°48'714.2
2018-Jun-15 05:30N 34°08' E 134°56'714.4
2018-Jun-15 05:00N 34°12' E 135°04'4 8.6
2018-Jun-15 04:30N 34°13' E 135°09'0 0.0
2018-Jun-15 04:01N 34°13' E 135°09'713.5
2018-Jun-15 03:30N 34°11' E 135°01'816.3
2018-Jun-15 03:00N 34°08' E 134°52'13 7.9
2018-Jun-15 01:21N 34°03' E 134°37'514.7
2018-Jun-15 01:00N 34°04' E 134°43'815.6
2018-Jun-15 00:30N 34°07' E 134°51'816.1
2018-Jun-15 00:00N 34°10' E 135°00'714.6
2018-Jun-14 23:30N 34°13' E 135°09'0 0.0
2018-Jun-14 23:00N 34°13' E 135°09'2 4.6
2018-Jun-14 22:30N 34°12' E 135°06'815.5
2018-Jun-14 22:00N 34°09' E 134°57'815.0
2018-Jun-14 21:30N 34°07' E 134°49'7 3.6
2018-Jun-14 19:29N 34°04' E 134°41'713.9
2018-Jun-14 19:00N 34°07' E 134°48'714.2
2018-Jun-14 18:30N 34°09' E 134°56'713.8
2018-Jun-14 18:00N 34°12' E 135°04'4 8.3
2018-Jun-14 17:29N 34°13' E 135°09'0 0.0
2018-Jun-14 17:00N 34°13' E 135°09'0 0.0
2018-Jun-14 16:31N 34°13' E 135°09'0 0.0
2018-Jun-14 16:01N 34°13' E 135°09'0 0.0
2018-Jun-14 15:30N 34°13' E 135°09'0 0.2
2018-Jun-14 15:01N 34°13' E 135°08'713.6
2018-Jun-14 14:30N 34°11' E 135°01'815.0
2018-Jun-14 14:00N 34°07' E 134°52'6 2.3
2018-Jun-14 11:37N 34°06' E 134°46'214.2
2018-Jun-14 11:29N 34°07' E 134°48'714.9
2018-Jun-14 11:00N 34°09' E 134°56'815.3
2018-Jun-14 10:30N 34°12' E 135°05'3 6.5
2018-Jun-14 10:00N 34°13' E 135°09'0 0.0
2018-Jun-14 09:30N 34°13' E 135°09'613.0
2018-Jun-14 09:01N 34°11' E 135°01'816.4
2018-Jun-14 08:31N 34°08' E 134°52'6 2.7
2018-Jun-14 06:06N 34°05' E 134°45'115.1
2018-Jun-14 06:00N 34°05' E 134°47'816.2
2018-Jun-14 05:30N 34°08' E 134°56'816.4
2018-Jun-14 05:00N 34°12' E 135°05'3 6.7
2018-Jun-14 04:30N 34°13' E 135°09'0 0.4
2018-Jun-14 04:00N 34°13' E 135°08'816.6
2018-Jun-14 03:30N 34°11' E 134°59'814.3
2018-Jun-14 02:59N 34°07' E 134°51'9 4.7
2018-Jun-14 01:07N 34°04' E 134°41'415.8
2018-Jun-14 00:51N 34°06' E 134°46'616.2
2018-Jun-14 00:30N 34°08' E 134°52'816.3
2018-Jun-14 00:00N 34°11' E 135°01'713.5
2018-Jun-13 23:31N 34°13' E 135°09'0 0.0
2018-Jun-13 23:01N 34°13' E 135°09'0 0.0
2018-Jun-13 22:30N 34°13' E 135°09'0 0.0
2018-Jun-13 22:00N 34°13' E 135°09'0 0.0
2018-Jun-13 21:30N 34°13' E 135°09'0 0.0
2018-Jun-13 21:01N 34°13' E 135°09'0 0.0
2018-Jun-13 20:30N 34°13' E 135°09'1 1.8
2018-Jun-13 20:00N 34°13' E 135°08'815.2
2018-Jun-13 19:30N 34°10' E 134°59'714.4
2018-Jun-13 19:01N 34°07' E 134°51'13 7.4
2018-Jun-13 17:19N 34°03' E 134°37'715.5
2018-Jun-13 16:51N 34°05' E 134°45'616.1
2018-Jun-13 16:30N 34°07' E 134°52'816.1
2018-Jun-13 16:00N 34°10' E 135°00'714.8
2018-Jun-13 15:31N 34°13' E 135°09'  
Track history (hours):
 
Tides and Currents Weather Stations Pressure Air Temp Water Temp Dewpoint Dewpoint Depression Visibility Wind Speed Wind Dir Waves Ship Positions

Ferry Katsuragi

Last reported at 2018-Jun-23 15:31 UTC. Time now 2018-Jun-23 15:51 UTC.
Position N 34°13' E 135°09'.

Length 108 m; draft 4 m.

Type: Passenger vessel. MMSI: 431301245.

Date/timePositionNaut miles runAvg speedWind from/ knotsBaromVisibWave heightAir tempDewpointWater temp
2018-Jun-23 15:31N 34°13' E 135°09'0 0.9
2018-Jun-23 15:00N 34°13' E 135°08'713.2
2018-Jun-23 14:31N 34°11' E 135°00'714.5
2018-Jun-23 14:01N 34°08' E 134°52'9 4.0
2018-Jun-23 11:50N 34°06' E 134°42'514.7
2018-Jun-23 11:30N 34°08' E 134°48'714.7
2018-Jun-23 11:00N 34°09' E 134°56'714.9
2018-Jun-23 10:30N 34°12' E 135°05'3 6.5
2018-Jun-23 10:00N 34°13' E 135°09'0 0.1
2018-Jun-23 09:30N 34°13' E 135°09'713.4
2018-Jun-23 09:00N 34°11' E 135°01'916.7
2018-Jun-23 08:29N 34°08' E 134°51'9 4.5
2018-Jun-23 06:27N 34°04' E 134°41'614.1
2018-Jun-23 06:00N 34°07' E 134°48'714.3
2018-Jun-23 05:30N 34°10' E 134°56'713.9
2018-Jun-23 05:00N 34°12' E 135°04'4 8.3
2018-Jun-23 04:30N 34°13' E 135°09'0 0.1
2018-Jun-23 04:00N 34°13' E 135°09'713.9
2018-Jun-23 03:30N 34°11' E 135°00'916.3
2018-Jun-23 02:59N 34°07' E 134°51'12 7.4
2018-Jun-23 01:21N 34°03' E 134°38'814.6
2018-Jun-23 00:49N 34°06' E 134°46'515.5
2018-Jun-23 00:30N 34°08' E 134°51'815.5
2018-Jun-23 00:00N 34°10' E 135°00'714.8
2018-Jun-22 23:30N 34°13' E 135°09'0 0.1
2018-Jun-22 23:00N 34°13' E 135°09'4 8.4
2018-Jun-22 22:30N 34°12' E 135°04'713.4
2018-Jun-22 22:00N 34°09' E 134°56'713.4
2018-Jun-22 21:30N 34°07' E 134°49'11 6.2
2018-Jun-22 19:47N 34°03' E 134°37'412.9
2018-Jun-22 19:27N 34°05' E 134°42'713.5
2018-Jun-22 18:58N 34°07' E 134°49'613.5
2018-Jun-22 18:30N 34°10' E 134°56'713.4
2018-Jun-22 18:01N 34°12' E 135°03'4 8.9
2018-Jun-22 17:30N 34°13' E 135°09'0 0.0
2018-Jun-22 17:00N 34°13' E 135°09'0 0.0
2018-Jun-22 16:30N 34°13' E 135°09'0 0.0
2018-Jun-22 16:00N 34°13' E 135°09'0 0.0
2018-Jun-22 15:30N 34°13' E 135°09'0 0.1
2018-Jun-22 15:01N 34°13' E 135°09'712.9
2018-Jun-22 14:30N 34°12' E 135°01'714.4
2018-Jun-22 14:00N 34°09' E 134°53'12 5.8
2018-Jun-22 12:00N 34°04' E 134°40'714.6
2018-Jun-22 11:30N 34°07' E 134°48'715.0
2018-Jun-22 11:01N 34°10' E 134°56'714.6
2018-Jun-22 10:30N 34°12' E 135°05'3 6.7
2018-Jun-22 10:00N 34°13' E 135°09'1 1.1
2018-Jun-22 09:30N 34°13' E 135°08'815.2
2018-Jun-22 09:01N 34°11' E 134°59'815.6
2018-Jun-22 08:30N 34°08' E 134°51'4 1.9
2018-Jun-22 06:10N 34°06' E 134°46'213.8
2018-Jun-22 06:00N 34°07' E 134°48'714.0
2018-Jun-22 05:30N 34°10' E 134°56'713.7
2018-Jun-22 05:00N 34°12' E 135°04'4 8.5
2018-Jun-22 04:30N 34°13' E 135°09'0 0.1
2018-Jun-22 04:00N 34°13' E 135°09'714.0
2018-Jun-22 03:30N 34°10' E 135°01'816.2
2018-Jun-22 03:01N 34°07' E 134°52'6 2.8
2018-Jun-22 00:54N 34°05' E 134°45'615.7
2018-Jun-22 00:30N 34°07' E 134°52'815.8
2018-Jun-22 00:01N 34°11' E 135°01'714.0
2018-Jun-21 23:30N 34°13' E 135°09'0 0.0
2018-Jun-21 23:00N 34°13' E 135°09'3 5.9
2018-Jun-21 22:30N 34°12' E 135°05'714.2
2018-Jun-21 22:00N 34°09' E 134°57'815.0
2018-Jun-21 21:30N 34°06' E 134°49'11 6.2
2018-Jun-21 19:47N 34°03' E 134°37'413.9
2018-Jun-21 19:29N 34°04' E 134°42'713.8
2018-Jun-21 19:00N 34°07' E 134°49'713.6
2018-Jun-21 18:30N 34°09' E 134°56'713.0
2018-Jun-21 18:00N 34°12' E 135°04'4 8.5
2018-Jun-21 17:30N 34°13' E 135°09'0 0.0
2018-Jun-21 17:00N 34°13' E 135°09'0 0.0
2018-Jun-21 16:30N 34°13' E 135°09'0 0.0
2018-Jun-21 16:00N 34°13' E 135°09'0 0.0
2018-Jun-21 15:30N 34°13' E 135°09'1 1.4
2018-Jun-21 15:00N 34°13' E 135°08'713.6
2018-Jun-21 14:30N 34°11' E 134°60'815.0
2018-Jun-21 14:00N 34°08' E 134°51'13 7.3
2018-Jun-21 12:12N 34°03' E 134°37'714.7
2018-Jun-21 11:44N 34°05' E 134°45'415.1
2018-Jun-21 11:29N 34°07' E 134°49'714.8
2018-Jun-21 11:00N 34°10' E 134°56'714.7
2018-Jun-21 10:30N 34°13' E 135°05'3 6.4
2018-Jun-21 09:59N 34°13' E 135°09'0 0.7
2018-Jun-21 09:30N 34°13' E 135°08'714.5
2018-Jun-21 09:00N 34°11' E 134°60'816.1
2018-Jun-21 08:29N 34°08' E 134°51'6 2.9
2018-Jun-21 06:17N 34°06' E 134°43'414.3
2018-Jun-21 05:59N 34°07' E 134°48'714.6
2018-Jun-21 05:30N 34°10' E 134°56'714.1
2018-Jun-21 05:01N 34°12' E 135°04'4 8.1
2018-Jun-21 04:30N 34°13' E 135°09'0 0.1
2018-Jun-21 04:01N 34°13' E 135°09'713.5
2018-Jun-21 03:30N 34°10' E 135°01'916.7
2018-Jun-21 02:58N 34°07' E 134°51'8 4.1
2018-Jun-21 01:02N 34°04' E 134°42'215.6
2018-Jun-21 00:54N 34°05' E 134°45'615.9
2018-Jun-21 00:30N 34°07' E 134°52'815.7
2018-Jun-21 00:00N 34°10' E 135°00'714.8
2018-Jun-20 23:31N 34°13' E 135°09'0 0.1
2018-Jun-20 23:01N 34°13' E 135°09'3 5.5
2018-Jun-20 22:30N 34°12' E 135°05'714.6
2018-Jun-20 22:00N 34°09' E 134°58'714.6
2018-Jun-20 21:30N 34°05' E 134°50'7 3.5
2018-Jun-20 19:28N 34°04' E 134°41'713.9
2018-Jun-20 19:00N 34°07' E 134°48'713.5
2018-Jun-20 18:30N 34°10' E 134°56'713.3
2018-Jun-20 18:00N 34°12' E 135°04'4 8.6
2018-Jun-20 17:30N 34°13' E 135°09'0 0.0
2018-Jun-20 17:00N 34°13' E 135°09'0 0.0
2018-Jun-20 16:30N 34°13' E 135°09'0 0.0
2018-Jun-20 16:00N 34°13' E 135°09'0 0.0
2018-Jun-20 15:30N 34°13' E 135°09'1 2.0
2018-Jun-20 15:00N 34°13' E 135°07'713.6
2018-Jun-20 14:30N 34°10' E 134°60'714.5
2018-Jun-20 14:00N 34°06' E 134°53'13 7.5
2018-Jun-20 12:13N 34°03' E 134°37'413.9
2018-Jun-20 11:58N 34°04' E 134°41'714.1
2018-Jun-20 11:30N 34°06' E 134°49'714.7
2018-Jun-20 11:00N 34°08' E 134°57'815.7
2018-Jun-20 10:30N 34°12' E 135°05'3 6.6
2018-Jun-20 10:00N 34°13' E 135°09'0 0.6
2018-Jun-20 09:30N 34°13' E 135°08'714.5
2018-Jun-20 09:00N 34°10' E 135°00'815.8
2018-Jun-20 08:30N 34°06' E 134°52'10 5.0
2018-Jun-20 06:29N 34°04' E 134°40'714.5
2018-Jun-20 06:00N 34°04' E 134°48'714.2
2018-Jun-20 05:30N 34°08' E 134°56'714.4
2018-Jun-20 05:00N 34°11' E 135°03'5 9.3
2018-Jun-20 04:30N 34°13' E 135°09'0 0.0
2018-Jun-20 04:00N 34°13' E 135°09'713.8
2018-Jun-20 03:30N 34°10' E 135°01'816.1
2018-Jun-20 03:00N 34°06' E 134°53'11 5.7
2018-Jun-20 01:09N 34°04' E 134°40'416.0
2018-Jun-20 00:55N 34°04' E 134°45'715.9
2018-Jun-20 00:30N 34°06' E 134°52'816.3
2018-Jun-20 00:01N 34°10' E 135°01'714.0
2018-Jun-19 23:30N 34°13' E 135°09'0 0.0
2018-Jun-19 23:00N 34°13' E 135°09'2 4.8
2018-Jun-19 22:30N 34°13' E 135°06'815.6
2018-Jun-19 22:00N 34°09' E 134°57'815.7
2018-Jun-19 21:30N 34°05' E 134°49'7 3.4
2018-Jun-19 19:26N 34°04' E 134°41'613.9
2018-Jun-19 19:00N 34°06' E 134°48'714.0
2018-Jun-19 18:30N 34°09' E 134°55'714.1
2018-Jun-19 18:00N 34°12' E 135°03'5 9.1
2018-Jun-19 17:30N 34°13' E 135°09'0 0.0
2018-Jun-19 17:00N 34°13' E 135°09'0 0.0
2018-Jun-19 16:30N 34°13' E 135°09'0 0.0
2018-Jun-19 16:00N 34°13' E 135°09'0 0.0
2018-Jun-19 15:30N 34°13' E 135°09'0 0.0
2018-Jun-19 15:00N 34°13' E 135°09'612.5
2018-Jun-19 14:30N 34°12' E 135°01'815.2
2018-Jun-19 14:00N 34°09' E 134°53'10 4.7
2018-Jun-19 11:52N 34°05' E 134°42'615.0
2018-Jun-19 11:30N 34°07' E 134°48'815.6
2018-Jun-19 11:00N 34°10' E 134°56'714.9
2018-Jun-19 10:30N 34°12' E 135°05'3 6.6
2018-Jun-19 10:00N 34°13' E 135°09'0 0.0
2018-Jun-19 09:31N 34°13' E 135°09'713.8
2018-Jun-19 09:01N 34°11' E 135°01'917.0
2018-Jun-19 08:30N 34°07' E 134°51'8 3.4
2018-Jun-19 06:18N 34°05' E 134°43'414.4
2018-Jun-19 06:00N 34°06' E 134°47'714.6
2018-Jun-19 05:31N 34°09' E 134°56'714.4
2018-Jun-19 05:00N 34°12' E 135°04'4 8.6
2018-Jun-19 04:30N 34°13' E 135°09'0 0.0
2018-Jun-19 04:00N 34°13' E 135°09'713.3
2018-Jun-19 03:30N 34°11' E 135°01'917.3
2018-Jun-19 02:58N 34°07' E 134°51'9 4.8
2018-Jun-19 01:08N 34°04' E 134°41'215.5
2018-Jun-19 01:00N 34°05' E 134°43'815.9
2018-Jun-19 00:30N 34°08' E 134°52'816.0
2018-Jun-19 00:00N 34°11' E 135°01'713.8
2018-Jun-18 23:30N 34°13' E 135°09'0 0.0
2018-Jun-18 23:00N 34°13' E 135°09'3 5.9
2018-Jun-18 22:30N 34°13' E 135°05'714.8
2018-Jun-18 22:00N 34°09' E 134°57'714.9
2018-Jun-18 21:30N 34°06' E 134°49'7 3.3
2018-Jun-18 19:29N 34°04' E 134°41'713.2
2018-Jun-18 18:59N 34°07' E 134°49'713.8
2018-Jun-18 18:30N 34°09' E 134°56'713.9
2018-Jun-18 18:00N 34°12' E 135°04'4 8.6
2018-Jun-18 17:30N 34°13' E 135°09'0 0.0
2018-Jun-18 17:00N 34°13' E 135°09'0 0.0
2018-Jun-18 16:30N 34°13' E 135°09'0 0.0
2018-Jun-18 16:00N 34°13' E 135°09'0 0.0
2018-Jun-18 15:30N 34°13' E 135°09'1 1.3
2018-Jun-18 15:00N 34°13' E 135°08'713.9
2018-Jun-18 14:30N 34°11' E 134°59'714.2
2018-Jun-18 13:59N 34°08' E 134°51'8 3.8
2018-Jun-18 11:51N 34°05' E 134°43'514.6
2018-Jun-18 11:29N 34°07' E 134°49'715.5
2018-Jun-18 11:00N 34°10' E 134°56'714.6
2018-Jun-18 10:30N 34°12' E 135°05'3 6.3
2018-Jun-18 10:00N 34°13' E 135°09'0 0.0
2018-Jun-18 09:30N 34°13' E 135°09'612.5
2018-Jun-18 09:01N 34°11' E 135°01'917.0
2018-Jun-18 08:30N 34°08' E 134°52'7 2.9
2018-Jun-18 06:12N 34°05' E 134°45'418.3
2018-Jun-18 06:01N 34°05' E 134°49'918.4
2018-Jun-18 05:31N 34°10' E 134°59'816.5
2018-Jun-18 05:01N 34°13' E 135°08'1 1.0
2018-Jun-18 04:30N 34°13' E 135°09'0 0.1
2018-Jun-18 04:01N 34°13' E 135°09'815.9
2018-Jun-18 03:30N 34°10' E 134°59'917.1
2018-Jun-18 02:59N 34°06' E 134°50'6 3.4
2018-Jun-18 01:04N 34°04' E 134°42'215.5
2018-Jun-18 00:54N 34°05' E 134°45'615.9
2018-Jun-18 00:30N 34°08' E 134°52'816.1
2018-Jun-18 00:00N 34°11' E 135°01'612.8
2018-Jun-17 23:30N 34°13' E 135°09'0 0.0
2018-Jun-17 23:00N 34°13' E 135°09'3 5.7
2018-Jun-17 22:31N 34°13' E 135°05'815.1
2018-Jun-17 22:01N 34°09' E 134°57'714.1
2018-Jun-17 21:30N 34°06' E 134°49'11 6.4
2018-Jun-17 19:48N 34°03' E 134°37'413.2
2018-Jun-17 19:29N 34°04' E 134°42'613.1
2018-Jun-17 19:00N 34°07' E 134°49'713.4
2018-Jun-17 18:30N 34°09' E 134°56'713.2
2018-Jun-17 18:00N 34°12' E 135°03'4 8.8
2018-Jun-17 17:30N 34°13' E 135°09'0 0.0
2018-Jun-17 17:00N 34°13' E 135°09'0 0.0
2018-Jun-17 16:30N 34°13' E 135°09'0 0.0
2018-Jun-17 16:00N 34°13' E 135°09'0 0.0
2018-Jun-17 15:30N 34°13' E 135°09'1 1.2
2018-Jun-17 15:00N 34°13' E 135°08'612.9
2018-Jun-17 14:31N 34°11' E 135°00'713.9
2018-Jun-17 14:00N 34°08' E 134°53'11 5.2
2018-Jun-17 11:57N 34°04' E 134°41'613.9
2018-Jun-17 11:30N 34°07' E 134°48'715.0
2018-Jun-17 11:00N 34°09' E 134°56'714.9
2018-Jun-17 10:30N 34°12' E 135°05'3 6.9
2018-Jun-17 10:00N 34°13' E 135°09'0 0.0
2018-Jun-17 09:30N 34°13' E 135°09'714.0
2018-Jun-17 09:00N 34°11' E 135°01'815.8
2018-Jun-17 08:30N 34°07' E 134°52'13 7.1
2018-Jun-17 06:39N 34°03' E 134°37'414.0
2018-Jun-17 06:22N 34°04' E 134°41'514.0
2018-Jun-17 06:00N 34°06' E 134°47'714.4
2018-Jun-17 05:30N 34°09' E 134°55'714.8
2018-Jun-17 05:00N 34°12' E 135°03'5 9.2
2018-Jun-17 04:30N 34°13' E 135°09'0 0.0
2018-Jun-17 04:01N 34°13' E 135°09'713.7
2018-Jun-17 03:30N 34°11' E 135°01'916.2
2018-Jun-17 02:58N 34°08' E 134°51'9 4.9
2018-Jun-17 01:07N 34°04' E 134°41'214.9
2018-Jun-17 01:00N 34°05' E 134°43'815.3
2018-Jun-17 00:30N 34°08' E 134°52'816.2
2018-Jun-17 00:00N 34°11' E 135°00'713.7
2018-Jun-16 23:29N 34°13' E 135°09'0 0.0
2018-Jun-16 23:00N 34°13' E 135°09'3 6.7
2018-Jun-16 22:30N 34°12' E 135°05'816.3
2018-Jun-16 22:01N 34°07' E 134°57'714.4
2018-Jun-16 21:30N 34°06' E 134°49'10 5.9
2018-Jun-16 19:46N 34°03' E 134°37'312.9
2018-Jun-16 19:30N 34°04' E 134°41'713.1
2018-Jun-16 19:00N 34°07' E 134°48'713.9
2018-Jun-16 18:30N 34°10' E 134°56'713.9
2018-Jun-16 18:01N 34°12' E 135°03'4 8.7
2018-Jun-16 17:30N 34°13' E 135°09'0 0.0
2018-Jun-16 17:00N 34°13' E 135°09'0 0.0
2018-Jun-16 16:30N 34°13' E 135°09'0 0.0
2018-Jun-16 16:00N 34°13' E 135°09'0 0.0
2018-Jun-16 15:30N 34°13' E 135°09'1 1.1
2018-Jun-16 15:00N 34°13' E 135°08'714.2
2018-Jun-16 14:30N 34°12' E 134°59'714.5
2018-Jun-16 14:00N 34°08' E 134°52'7 2.9
2018-Jun-16 11:43N 34°06' E 134°44'314.5
2018-Jun-16 11:30N 34°07' E 134°48'714.4
2018-Jun-16 11:00N 34°10' E 134°56'815.3
2018-Jun-16 10:30N 34°12' E 135°05'3 6.4
2018-Jun-16 10:00N 34°13' E 135°09'0 0.1
2018-Jun-16 09:30N 34°13' E 135°09'714.4
2018-Jun-16 09:00N 34°11' E 134°60'916.2
2018-Jun-16 08:28N 34°08' E 134°51'5 2.2
2018-Jun-16 06:11N 34°05' E 134°45'314.1
2018-Jun-16 05:57N 34°07' E 134°49'714.6
2018-Jun-16 05:31N 34°09' E 134°56'714.6
2018-Jun-16 05:00N 34°12' E 135°04'4 7.9
2018-Jun-16 04:30N 34°13' E 135°09'0 0.1
2018-Jun-16 04:00N 34°13' E 135°09'713.7
2018-Jun-16 03:30N 34°10' E 135°01'816.3
2018-Jun-16 03:01N 34°07' E 134°52'13 8.1
2018-Jun-16 01:23N 34°03' E 134°37'513.7
2018-Jun-16 01:00N 34°05' E 134°43'715.1
2018-Jun-16 00:30N 34°08' E 134°51'815.9
2018-Jun-16 00:00N 34°11' E 135°00'714.6
2018-Jun-15 23:30N 34°13' E 135°09'0 0.0
2018-Jun-15 23:01N 34°13' E 135°09'4 8.0
2018-Jun-15 22:31N 34°12' E 135°04'714.2
2018-Jun-15 22:00N 34°09' E 134°56'813.8
2018-Jun-15 21:27N 34°06' E 134°47'9 5.6
2018-Jun-15 19:47N 34°03' E 134°37'412.9
2018-Jun-15 19:26N 34°04' E 134°42'613.4
2018-Jun-15 19:00N 34°07' E 134°48'713.6
2018-Jun-15 18:30N 34°09' E 134°56'713.4
2018-Jun-15 18:00N 34°12' E 135°03'4 8.9
2018-Jun-15 17:30N 34°13' E 135°09'0 0.0
2018-Jun-15 17:00N 34°13' E 135°09'0 0.0
2018-Jun-15 16:31N 34°13' E 135°09'0 0.0
2018-Jun-15 16:00N 34°13' E 135°09'0 0.0
2018-Jun-15 15:31N 34°13' E 135°09'1 1.5
2018-Jun-15 15:00N 34°13' E 135°08'713.5
2018-Jun-15 14:30N 34°12' E 134°60'714.6
2018-Jun-15 14:00N 34°08' E 134°52'13 7.5
2018-Jun-15 12:13N 34°03' E 134°37'513.8
2018-Jun-15 11:50N 34°05' E 134°43'413.9
2018-Jun-15 11:30N 34°07' E 134°48'714.4
2018-Jun-15 11:00N 34°09' E 134°56'714.9
2018-Jun-15 10:31N 34°12' E 135°04'4 7.1
2018-Jun-15 10:00N 34°13' E 135°09'0 0.0
2018-Jun-15 09:31N 34°13' E 135°09'714.0
2018-Jun-15 09:00N 34°11' E 135°00'816.0
2018-Jun-15 08:29N 34°08' E 134°51'9 4.1
2018-Jun-15 06:24N 34°04' E 134°42'613.8
2018-Jun-15 05:59N 34°06' E 134°48'714.2
2018-Jun-15 05:30N 34°08' E 134°56'714.4
2018-Jun-15 05:00N 34°12' E 135°04'4 8.6
2018-Jun-15 04:30N 34°13' E 135°09'0 0.0
2018-Jun-15 04:01N 34°13' E 135°09'713.5
2018-Jun-15 03:30N 34°11' E 135°01'816.3
2018-Jun-15 03:00N 34°08' E 134°52'13 7.9
2018-Jun-15 01:21N 34°03' E 134°37'514.7
2018-Jun-15 01:00N 34°04' E 134°43'815.6
2018-Jun-15 00:30N 34°07' E 134°51'816.1
2018-Jun-15 00:00N 34°10' E 135°00'714.6
2018-Jun-14 23:30N 34°13' E 135°09'0 0.0
2018-Jun-14 23:00N 34°13' E 135°09'2 4.6
2018-Jun-14 22:30N 34°12' E 135°06'815.5
2018-Jun-14 22:00N 34°09' E 134°57'815.0
2018-Jun-14 21:30N 34°07' E 134°49'7 3.6
2018-Jun-14 19:29N 34°04' E 134°41'713.9
2018-Jun-14 19:00N 34°07' E 134°48'714.2
2018-Jun-14 18:30N 34°09' E 134°56'713.8
2018-Jun-14 18:00N 34°12' E 135°04'4 8.3
2018-Jun-14 17:29N 34°13' E 135°09'0 0.0
2018-Jun-14 17:00N 34°13' E 135°09'0 0.0
2018-Jun-14 16:31N 34°13' E 135°09'0 0.0
2018-Jun-14 16:01N 34°13' E 135°09'0 0.0
2018-Jun-14 15:30N 34°13' E 135°09'0 0.2
2018-Jun-14 15:01N 34°13' E 135°08'713.6
2018-Jun-14 14:30N 34°11' E 135°01'815.0
2018-Jun-14 14:00N 34°07' E 134°52'6 2.3
2018-Jun-14 11:37N 34°06' E 134°46'214.2
2018-Jun-14 11:29N 34°07' E 134°48'714.9
2018-Jun-14 11:00N 34°09' E 134°56'815.3
2018-Jun-14 10:30N 34°12' E 135°05'3 6.5
2018-Jun-14 10:00N 34°13' E 135°09'0 0.0
2018-Jun-14 09:30N 34°13' E 135°09'613.0
2018-Jun-14 09:01N 34°11' E 135°01'816.4
2018-Jun-14 08:31N 34°08' E 134°52'6 2.7
2018-Jun-14 06:06N 34°05' E 134°45'115.1
2018-Jun-14 06:00N 34°05' E 134°47'816.2
2018-Jun-14 05:30N 34°08' E 134°56'816.4
2018-Jun-14 05:00N 34°12' E 135°05'3 6.7
2018-Jun-14 04:30N 34°13' E 135°09'0 0.4
2018-Jun-14 04:00N 34°13' E 135°08'816.6
2018-Jun-14 03:30N 34°11' E 134°59'814.3
2018-Jun-14 02:59N 34°07' E 134°51'9 4.7
2018-Jun-14 01:07N 34°04' E 134°41'415.8
2018-Jun-14 00:51N 34°06' E 134°46'616.2
2018-Jun-14 00:30N 34°08' E 134°52'816.3
2018-Jun-14 00:00N 34°11' E 135°01'713.5
2018-Jun-13 23:31N 34°13' E 135°09'0 0.0
2018-Jun-13 23:01N 34°13' E 135°09'0 0.0
2018-Jun-13 22:30N 34°13' E 135°09'0 0.0
2018-Jun-13 22:00N 34°13' E 135°09'0 0.0
2018-Jun-13 21:30N 34°13' E 135°09'0 0.0
2018-Jun-13 21:01N 34°13' E 135°09'0 0.0
2018-Jun-13 20:30N 34°13' E 135°09'1 1.8
2018-Jun-13 20:00N 34°13' E 135°08'815.2
2018-Jun-13 19:30N 34°10' E 134°59'714.4
2018-Jun-13 19:01N 34°07' E 134°51'13 7.4
2018-Jun-13 17:19N 34°03' E 134°37'715.5
2018-Jun-13 16:51N 34°05' E 134°45'616.1
2018-Jun-13 16:30N 34°07' E 134°52'816.1
2018-Jun-13 16:00N 34°10' E 135°00'714.8
2018-Jun-13 15:31N 34°13' E 135°09'  

Dump ship's entire track history